sensor_id;sensor_type;location;lat;lon;timestamp;pressure;altitude;pressure_sealevel;temperature;humidity
14273;BME280;7220;49.450;11.052;2023-02-15T00:03:16;99690.97;;;0.95;100.00
14273;BME280;7220;49.450;11.052;2023-02-15T00:07:18;99687.50;;;0.96;100.00
14273;BME280;7220;49.450;11.052;2023-02-15T00:11:19;99681.09;;;0.66;100.00
14273;BME280;7220;49.450;11.052;2023-02-15T00:15:39;99681.22;;;0.80;100.00
14273;BME280;7220;49.450;11.052;2023-02-15T00:19:39;99686.41;;;0.75;100.00
14273;BME280;7220;49.450;11.052;2023-02-15T00:23:40;99677.66;;;0.70;100.00
14273;BME280;7220;49.450;11.052;2023-02-15T00:27:40;99668.00;;;0.66;100.00
14273;BME280;7220;49.450;11.052;2023-02-15T00:31:40;99668.84;;;0.62;100.00
14273;BME280;7220;49.450;11.052;2023-02-15T00:35:41;99671.63;;;0.77;100.00
14273;BME280;7220;49.450;11.052;2023-02-15T00:39:41;99671.56;;;0.71;100.00
14273;BME280;7220;49.450;11.052;2023-02-15T00:43:41;99669.59;;;0.52;100.00
14273;BME280;7220;49.450;11.052;2023-02-15T00:47:41;99664.44;;;0.58;100.00
14273;BME280;7220;49.450;11.052;2023-02-15T00:51:42;99666.34;;;0.73;100.00
14273;BME280;7220;49.450;11.052;2023-02-15T00:55:42;99667.25;;;0.78;100.00
14273;BME280;7220;49.450;11.052;2023-02-15T00:59:42;99663.72;;;0.71;100.00
14273;BME280;7220;49.450;11.052;2023-02-15T01:03:43;99674.84;;;0.52;100.00
14273;BME280;7220;49.450;11.052;2023-02-15T01:07:43;99663.47;;;0.48;100.00
14273;BME280;7220;49.450;11.052;2023-02-15T01:11:44;99666.78;;;0.33;100.00
14273;BME280;7220;49.450;11.052;2023-02-15T01:15:45;99659.78;;;0.27;100.00
14273;BME280;7220;49.450;11.052;2023-02-15T01:19:45;99652.09;;;0.44;100.00
14273;BME280;7220;49.450;11.052;2023-02-15T01:23:46;99653.75;;;0.36;100.00
14273;BME280;7220;49.450;11.052;2023-02-15T01:27:47;99647.63;;;0.33;100.00
14273;BME280;7220;49.450;11.052;2023-02-15T01:31:47;99646.75;;;0.35;100.00
14273;BME280;7220;49.450;11.052;2023-02-15T01:35:47;99646.06;;;0.50;100.00
14273;BME280;7220;49.450;11.052;2023-02-15T01:39:48;99641.69;;;0.49;100.00
14273;BME280;7220;49.450;11.052;2023-02-15T01:43:57;99637.38;;;0.54;100.00
14273;BME280;7220;49.450;11.052;2023-02-15T01:48:13;99622.53;;;0.50;100.00
14273;BME280;7220;49.450;11.052;2023-02-15T01:52:18;99625.94;;;0.44;100.00
14273;BME280;7220;49.450;11.052;2023-02-15T01:56:25;99619.97;;;0.56;100.00
14273;BME280;7220;49.450;11.052;2023-02-15T02:00:27;99606.81;;;0.52;100.00
14273;BME280;7220;49.450;11.052;2023-02-15T02:04:35;99599.88;;;0.54;100.00
14273;BME280;7220;49.450;11.052;2023-02-15T02:08:38;99602.31;;;0.37;100.00
14273;BME280;7220;49.450;11.052;2023-02-15T02:12:40;99615.31;;;0.29;100.00
14273;BME280;7220;49.450;11.052;2023-02-15T02:16:52;99604.81;;;0.26;100.00
14273;BME280;7220;49.450;11.052;2023-02-15T02:29:43;99610.63;;;-0.02;100.00
14273;BME280;7220;49.450;11.052;2023-02-15T02:34:04;99610.59;;;-0.03;100.00
14273;BME280;7220;49.450;11.052;2023-02-15T02:38:27;99594.25;;;0.17;100.00
14273;BME280;7220;49.450;11.052;2023-02-15T02:42:44;99593.06;;;-0.15;100.00
14273;BME280;7220;49.450;11.052;2023-02-15T02:46:53;99593.19;;;-0.03;100.00
14273;BME280;7220;49.450;11.052;2023-02-15T02:50:54;99589.00;;;0.13;100.00
14273;BME280;7220;49.450;11.052;2023-02-15T02:54:55;99585.50;;;0.11;100.00
14273;BME280;7220;49.450;11.052;2023-02-15T02:59:20;99581.97;;;0.09;100.00
14273;BME280;7220;49.450;11.052;2023-02-15T03:03:34;99579.31;;;0.03;100.00
14273;BME280;7220;49.450;11.052;2023-02-15T03:07:36;99580.06;;;-0.07;100.00
14273;BME280;7220;49.450;11.052;2023-02-15T03:11:37;99574.97;;;0.05;100.00
14273;BME280;7220;49.450;11.052;2023-02-15T03:15:39;99575.09;;;0.14;100.00
14273;BME280;7220;49.450;11.052;2023-02-15T03:20:11;99577.38;;;-0.13;100.00
14273;BME280;7220;49.450;11.052;2023-02-15T03:24:17;99570.63;;;0.06;100.00
14273;BME280;7220;49.450;11.052;2023-02-15T03:28:24;99576.63;;;-0.05;100.00
14273;BME280;7220;49.450;11.052;2023-02-15T03:32:29;99580.84;;;-0.14;100.00
14273;BME280;7220;49.450;11.052;2023-02-15T03:36:39;99577.31;;;-0.18;100.00
14273;BME280;7220;49.450;11.052;2023-02-15T03:40:44;99586.00;;;-0.22;100.00
14273;BME280;7220;49.450;11.052;2023-02-15T03:45:08;99578.16;;;-0.22;100.00
14273;BME280;7220;49.450;11.052;2023-02-15T03:49:15;99586.53;;;-0.50;100.00
14273;BME280;7220;49.450;11.052;2023-02-15T03:53:18;99572.63;;;-0.44;100.00
14273;BME280;7220;49.450;11.052;2023-02-15T03:57:26;99580.72;;;-0.27;100.00
14273;BME280;7220;49.450;11.052;2023-02-15T04:06:02;99593.69;;;-0.33;100.00
14273;BME280;7220;49.450;11.052;2023-02-15T04:10:03;99592.09;;;-0.22;100.00
14273;BME280;7220;49.450;11.052;2023-02-15T04:14:22;99582.22;;;-0.46;100.00
14273;BME280;7220;49.450;11.052;2023-02-15T04:18:42;99584.84;;;-0.43;100.00
14273;BME280;7220;49.450;11.052;2023-02-15T04:23:05;99591.16;;;-0.25;100.00
14273;BME280;7220;49.450;11.052;2023-02-15T04:27:25;99588.78;;;-0.05;100.00
14273;BME280;7220;49.450;11.052;2023-02-15T04:31:25;99591.16;;;-0.25;100.00
14273;BME280;7220;49.450;11.052;2023-02-15T04:35:25;99593.78;;;-0.24;100.00
14273;BME280;7220;49.450;11.052;2023-02-15T04:39:25;99597.25;;;-0.28;100.00
14273;BME280;7220;49.450;11.052;2023-02-15T04:43:26;99597.19;;;-0.31;100.00
14273;BME280;7220;49.450;11.052;2023-02-15T04:47:26;99595.34;;;-0.38;100.00
14273;BME280;7220;49.450;11.052;2023-02-15T04:51:27;99602.16;;;-0.51;100.00
14273;BME280;7220;49.450;11.052;2023-02-15T04:55:27;99589.16;;;-0.46;100.00
14273;BME280;7220;49.450;11.052;2023-02-15T04:59:27;99584.91;;;-0.38;100.00
14273;BME280;7220;49.450;11.052;2023-02-15T05:03:27;99584.78;;;-0.48;100.00
14273;BME280;7220;49.450;11.052;2023-02-15T05:07:28;99571.19;;;-0.23;100.00
14273;BME280;7220;49.450;11.052;2023-02-15T05:11:28;99574.72;;;-0.18;100.00
14273;BME280;7220;49.450;11.052;2023-02-15T05:15:28;99562.44;;;-0.27;100.00
14273;BME280;7220;49.450;11.052;2023-02-15T05:19:29;99557.16;;;-0.30;100.00
14273;BME280;7220;49.450;11.052;2023-02-15T05:23:29;99554.69;;;-0.18;100.00
14273;BME280;7220;49.450;11.052;2023-02-15T05:27:29;99572.88;;;-0.27;100.00
14273;BME280;7220;49.450;11.052;2023-02-15T05:31:48;99557.13;;;-0.32;100.00
14273;BME280;7220;49.450;11.052;2023-02-15T05:35:49;99561.34;;;-0.44;100.00
14273;BME280;7220;49.450;11.052;2023-02-15T05:39:49;99569.81;;;-0.62;100.00
14273;BME280;7220;49.450;11.052;2023-02-15T05:43:49;99567.28;;;-0.55;100.00
14273;BME280;7220;49.450;11.052;2023-02-15T05:47:50;99579.34;;;-0.65;100.00
14273;BME280;7220;49.450;11.052;2023-02-15T05:51:50;99564.72;;;-0.52;100.00
14273;BME280;7220;49.450;11.052;2023-02-15T05:55:50;99572.69;;;-0.39;100.00
14273;BME280;7220;49.450;11.052;2023-02-15T05:59:51;99549.13;;;-0.44;100.00
14273;BME280;7220;49.450;11.052;2023-02-15T06:03:51;99549.00;;;-0.56;100.00
14273;BME280;7220;49.450;11.052;2023-02-15T06:07:52;99551.63;;;-0.55;100.00
14273;BME280;7220;49.450;11.052;2023-02-15T06:11:52;99551.66;;;-0.53;100.00
14273;BME280;7220;49.450;11.052;2023-02-15T06:15:53;99537.78;;;-0.49;100.00
14273;BME280;7220;49.450;11.052;2023-02-15T06:19:53;99541.28;;;-0.47;100.00
14273;BME280;7220;49.450;11.052;2023-02-15T06:23:53;99542.91;;;-0.57;100.00
14273;BME280;7220;49.450;11.052;2023-02-15T06:27:53;99541.81;;;-0.73;100.00
14273;BME280;7220;49.450;11.052;2023-02-15T06:31:54;99553.16;;;-0.69;100.00
14273;BME280;7220;49.450;11.052;2023-02-15T06:35:54;99567.06;;;-0.70;100.00
14273;BME280;7220;49.450;11.052;2023-02-15T06:39:54;99573.09;;;-0.76;100.00
14273;BME280;7220;49.450;11.052;2023-02-15T06:43:55;99570.53;;;-0.74;100.00
14273;BME280;7220;49.450;11.052;2023-02-15T06:47:55;99569.63;;;-0.75;100.00
14273;BME280;7220;49.450;11.052;2023-02-15T06:51:56;99576.38;;;-0.89;100.00
14273;BME280;7220;49.450;11.052;2023-02-15T06:56:04;99580.75;;;-0.87;100.00
14273;BME280;7220;49.450;11.052;2023-02-15T07:00:07;99580.97;;;-0.74;100.00
14273;BME280;7220;49.450;11.052;2023-02-15T07:04:08;99565.31;;;-0.71;100.00
14273;BME280;7220;49.450;11.052;2023-02-15T07:08:08;99558.44;;;-0.66;100.00
14273;BME280;7220;49.450;11.052;2023-02-15T07:12:09;99568.91;;;-0.66;100.00
14273;BME280;7220;49.450;11.052;2023-02-15T07:16:28;99567.97;;;-0.70;100.00
14273;BME280;7220;49.450;11.052;2023-02-15T07:20:28;99582.81;;;-0.64;100.00
14273;BME280;7220;49.450;11.052;2023-02-15T07:24:29;99567.06;;;-0.73;100.00
14273;BME280;7220;49.450;11.052;2023-02-15T07:28:30;99571.28;;;-0.82;100.00
14273;BME280;7220;49.450;11.052;2023-02-15T07:32:31;99566.78;;;-0.90;100.00
14273;BME280;7220;49.450;11.052;2023-02-15T07:36:32;99566.16;;;-0.75;100.00
14273;BME280;7220;49.450;11.052;2023-02-15T07:40:32;99555.00;;;-0.62;100.00
14273;BME280;7220;49.450;11.052;2023-02-15T07:44:32;99553.25;;;-0.63;100.00
14273;BME280;7220;49.450;11.052;2023-02-15T07:48:34;99566.41;;;-0.57;100.00
14273;BME280;7220;49.450;11.052;2023-02-15T07:52:34;99559.38;;;-0.59;100.00
14273;BME280;7220;49.450;11.052;2023-02-15T07:56:34;99561.00;;;-0.69;100.00
14273;BME280;7220;49.450;11.052;2023-02-15T08:00:35;99547.94;;;-0.72;100.00
14273;BME280;7220;49.450;11.052;2023-02-15T08:04:55;99551.25;;;-0.83;100.00
14273;BME280;7220;49.450;11.052;2023-02-15T08:08:55;99557.34;;;-0.82;100.00
14273;BME280;7220;49.450;11.052;2023-02-15T08:12:56;99558.31;;;-0.74;100.00
14273;BME280;7220;49.450;11.052;2023-02-15T08:16:59;99552.88;;;-0.91;100.00
14273;BME280;7220;49.450;11.052;2023-02-15T08:21:02;99559.88;;;-0.90;100.00
14273;BME280;7220;49.450;11.052;2023-02-15T08:25:05;99564.38;;;-0.78;100.00
14273;BME280;7220;49.450;11.052;2023-02-15T08:29:06;99556.41;;;-0.86;100.00
14273;BME280;7220;49.450;11.052;2023-02-15T08:33:09;99553.88;;;-0.81;100.00
14273;BME280;7220;49.450;11.052;2023-02-15T08:37:09;99548.13;;;-0.57;100.00
14273;BME280;7220;49.450;11.052;2023-02-15T08:41:18;99537.72;;;-0.54;100.00
14273;BME280;7220;49.450;11.052;2023-02-15T08:45:19;99550.63;;;-0.66;100.00
14273;BME280;7220;49.450;11.052;2023-02-15T08:49:21;99562.91;;;-0.59;100.00
14273;BME280;7220;49.450;11.052;2023-02-15T08:53:21;99563.81;;;-0.54;100.00
14273;BME280;7220;49.450;11.052;2023-02-15T08:57:22;99563.16;;;-0.40;100.00
14273;BME280;7220;49.450;11.052;2023-02-15T09:01:24;99567.53;;;-0.36;100.00
14273;BME280;7220;49.450;11.052;2023-02-15T09:05:25;99552.72;;;-0.37;100.00
14273;BME280;7220;49.450;11.052;2023-02-15T09:09:25;99558.91;;;-0.29;100.00
14273;BME280;7220;49.450;11.052;2023-02-15T09:13:26;99554.53;;;-0.30;100.00
14273;BME280;7220;49.450;11.052;2023-02-15T09:17:26;99547.66;;;-0.25;100.00
14273;BME280;7220;49.450;11.052;2023-02-15T09:21:27;99552.03;;;-0.21;100.00
14273;BME280;7220;49.450;11.052;2023-02-15T09:25:28;99549.59;;;-0.08;100.00
14273;BME280;7220;49.450;11.052;2023-02-15T09:29:28;99552.09;;;-0.14;100.00
14273;BME280;7220;49.450;11.052;2023-02-15T09:33:29;99551.31;;;-0.07;100.00
14273;BME280;7220;49.450;11.052;2023-02-15T09:37:32;99548.84;;;0.04;100.00
14273;BME280;7220;49.450;11.052;2023-02-15T09:45:58;99559.50;;;0.24;100.00
14273;BME280;7220;49.450;11.052;2023-02-15T09:50:17;99564.78;;;0.33;100.00
14273;BME280;7220;49.450;11.052;2023-02-15T09:54:41;99575.25;;;0.30;100.00
14273;BME280;7220;49.450;11.052;2023-02-15T10:11:41;99572.19;;;0.77;100.00
14273;BME280;7220;49.450;11.052;2023-02-15T10:16:06;99560.00;;;0.83;100.00
14273;BME280;7220;49.450;11.052;2023-02-15T10:20:23;99565.38;;;1.01;100.00
14273;BME280;7220;49.450;11.052;2023-02-15T10:28:31;99546.00;;;0.81;100.00
14273;BME280;7220;49.450;11.052;2023-02-15T10:33:09;99538.25;;;0.93;100.00
14273;BME280;7220;49.450;11.052;2023-02-15T10:41:37;99525.34;;;1.21;100.00
14273;BME280;7220;49.450;11.052;2023-02-15T10:47:06;99518.50;;;1.52;100.00
14273;BME280;7220;49.450;11.052;2023-02-15T10:50:50;99512.47;;;1.67;100.00
14273;BME280;7220;49.450;11.052;2023-02-15T10:55:16;99495.03;;;1.83;100.00
14273;BME280;7220;49.450;11.052;2023-02-15T11:03:36;99471.44;;;2.00;99.67
14273;BME280;7220;49.450;11.052;2023-02-15T11:07:43;99470.63;;;2.18;99.21
14273;BME280;7220;49.450;11.052;2023-02-15T11:11:49;99458.38;;;2.30;98.87
14273;BME280;7220;49.450;11.052;2023-02-15T11:16:19;99463.59;;;2.50;97.87
14273;BME280;7220;49.450;11.052;2023-02-15T11:20:41;99461.84;;;2.69;97.56
14273;BME280;7220;49.450;11.052;2023-02-15T11:24:44;99460.94;;;2.84;96.55
14273;BME280;7220;49.450;11.052;2023-02-15T11:33:15;99466.25;;;2.67;95.59
14273;BME280;7220;49.450;11.052;2023-02-15T11:37:23;99462.72;;;2.66;96.60
14273;BME280;7220;49.450;11.052;2023-02-15T11:41:31;99452.16;;;2.99;96.15
14273;BME280;7220;49.450;11.052;2023-02-15T11:45:34;99435.47;;;3.14;94.51
14273;BME280;7220;49.450;11.052;2023-02-15T11:49:35;99436.31;;;3.22;93.71
14273;BME280;7220;49.450;11.052;2023-02-15T11:53:37;99438.97;;;3.24;93.70
14273;BME280;7220;49.450;11.052;2023-02-15T11:57:41;99430.09;;;3.43;92.96
14273;BME280;7220;49.450;11.052;2023-02-15T12:01:46;99439.47;;;3.89;91.26
14273;BME280;7220;49.450;11.052;2023-02-15T12:05:52;99439.06;;;4.45;89.57
14273;BME280;7220;49.450;11.052;2023-02-15T12:10:00;99422.47;;;5.21;83.78
14273;BME280;7220;49.450;11.052;2023-02-15T12:14:06;99412.22;;;5.65;82.50
14273;BME280;7220;49.450;11.052;2023-02-15T12:18:38;99400.06;;;6.15;79.22
14273;BME280;7220;49.450;11.052;2023-02-15T12:22:46;99392.69;;;6.33;77.52
14273;BME280;7220;49.450;11.052;2023-02-15T12:27:02;99388.63;;;6.65;76.05
14273;BME280;7220;49.450;11.052;2023-02-15T12:31:10;99388.44;;;6.74;76.11
14273;BME280;7220;49.450;11.052;2023-02-15T12:35:29;99368.13;;;6.79;74.98
14273;BME280;7220;49.450;11.052;2023-02-15T12:39:31;99375.88;;;6.87;75.40
14273;BME280;7220;49.450;11.052;2023-02-15T12:43:33;99361.00;;;6.83;75.35
14273;BME280;7220;49.450;11.052;2023-02-15T12:47:33;99373.94;;;6.95;74.13
14273;BME280;7220;49.450;11.052;2023-02-15T12:56:04;99351.66;;;7.50;73.02
14273;BME280;7220;49.450;11.052;2023-02-15T13:00:28;99335.22;;;7.74;72.11
14273;BME280;7220;49.450;11.052;2023-02-15T13:04:29;99347.25;;;7.88;70.24
14273;BME280;7220;49.450;11.052;2023-02-15T13:08:34;99335.66;;;8.28;69.93
14273;BME280;7220;49.450;11.052;2023-02-15T13:12:37;99333.06;;;8.93;68.45
14273;BME280;7220;49.450;11.052;2023-02-15T13:16:38;99336.69;;;9.20;66.41
14273;BME280;7220;49.450;11.052;2023-02-15T13:20:40;99338.94;;;9.32;64.92
14273;BME280;7220;49.450;11.052;2023-02-15T13:24:56;99332.25;;;9.49;64.70
14273;BME280;7220;49.450;11.052;2023-02-15T13:29:05;99324.72;;;9.63;63.92
14273;BME280;7220;49.450;11.052;2023-02-15T13:33:23;99320.81;;;9.75;63.28
14273;BME280;7220;49.450;11.052;2023-02-15T13:42:22;99303.19;;;10.26;61.10
14273;BME280;7220;49.450;11.052;2023-02-15T13:46:34;99316.22;;;10.60;60.80
14273;BME280;7220;49.450;11.052;2023-02-15T13:55:53;99315.00;;;10.94;59.02
14273;BME280;7220;49.450;11.052;2023-02-15T14:09:20;99314.16;;;10.93;54.47
14273;BME280;7220;49.450;11.052;2023-02-15T14:13:12;99321.75;;;10.79;54.99
14273;BME280;7220;49.450;11.052;2023-02-15T14:21:51;99313.91;;;9.70;58.37
14273;BME280;7220;49.450;11.052;2023-02-15T14:25:59;99310.41;;;9.41;59.06
14273;BME280;7220;49.450;11.052;2023-02-15T14:30:10;99314.06;;;9.08;60.14
14273;BME280;7220;49.450;11.052;2023-02-15T14:34:22;99310.13;;;8.90;60.71
14273;BME280;7220;49.450;11.052;2023-02-15T14:38:44;99315.06;;;8.73;61.08
14273;BME280;7220;49.450;11.052;2023-02-15T14:43:14;99315.50;;;8.57;61.60
14273;BME280;7220;49.450;11.052;2023-02-15T14:47:25;99306.00;;;8.14;63.13
14273;BME280;7220;49.450;11.052;2023-02-15T14:55:45;99299.13;;;7.72;65.01
14273;BME280;7220;49.450;11.052;2023-02-15T15:03:55;99301.91;;;7.26;66.95
14273;BME280;7220;49.450;11.052;2023-02-15T15:07:58;99304.00;;;7.12;67.94
14273;BME280;7220;49.450;11.052;2023-02-15T15:21:02;99296.97;;;6.70;70.31
14273;BME280;7220;49.450;11.052;2023-02-15T15:25:08;99299.88;;;6.56;70.80
14273;BME280;7220;49.450;11.052;2023-02-15T15:29:10;99297.56;;;6.39;71.96
14273;BME280;7220;49.450;11.052;2023-02-15T15:33:37;99291.75;;;6.20;73.14
14273;BME280;7220;49.450;11.052;2023-02-15T15:41:57;99297.25;;;6.08;74.24
14273;BME280;7220;49.450;11.052;2023-02-15T15:50:24;99291.47;;;5.84;75.56
14273;BME280;7220;49.450;11.052;2023-02-15T15:54:25;99286.34;;;5.76;75.86
14273;BME280;7220;49.450;11.052;2023-02-15T15:58:27;99288.97;;;5.76;75.82
14273;BME280;7220;49.450;11.052;2023-02-15T16:02:30;99291.06;;;5.54;76.90
14273;BME280;7220;49.450;11.052;2023-02-15T16:06:36;99285.09;;;5.43;77.83
14273;BME280;7220;49.450;11.052;2023-02-15T16:10:38;99284.44;;;5.28;78.57
14273;BME280;7220;49.450;11.052;2023-02-15T16:14:39;99307.56;;;5.08;80.08
14273;BME280;7220;49.450;11.052;2023-02-15T16:18:40;99312.97;;;4.98;81.03
14273;BME280;7220;49.450;11.052;2023-02-15T16:22:45;99299.88;;;4.90;81.59
14273;BME280;7220;49.450;11.052;2023-02-15T16:31:14;99306.47;;;4.55;83.99
14273;BME280;7220;49.450;11.052;2023-02-15T16:35:16;99297.88;;;4.35;85.60
14273;BME280;7220;49.450;11.052;2023-02-15T16:39:19;99305.00;;;4.28;85.90
14273;BME280;7220;49.450;11.052;2023-02-15T16:43:24;99313.03;;;4.11;86.88
14273;BME280;7220;49.450;11.052;2023-02-15T16:47:29;99320.25;;;3.90;88.63
14273;BME280;7220;49.450;11.052;2023-02-15T16:51:33;99329.16;;;3.74;89.47
14273;BME280;7220;49.450;11.052;2023-02-15T16:55:37;99315.19;;;3.62;90.06
14273;BME280;7220;49.450;11.052;2023-02-15T16:59:41;99331.94;;;3.54;90.30
14273;BME280;7220;49.450;11.052;2023-02-15T17:03:48;99323.22;;;3.42;91.38
14273;BME280;7220;49.450;11.052;2023-02-15T17:07:52;99336.47;;;3.28;92.11
14273;BME280;7220;49.450;11.052;2023-02-15T17:12:03;99328.66;;;3.16;93.04
14273;BME280;7220;49.450;11.052;2023-02-15T17:20:13;99331.34;;;3.04;94.00
14273;BME280;7220;49.450;11.052;2023-02-15T17:24:21;99340.09;;;2.99;94.13
14273;BME280;7220;49.450;11.052;2023-02-15T17:28:28;99344.50;;;2.93;93.77
14273;BME280;7220;49.450;11.052;2023-02-15T17:32:31;99341.97;;;2.71;95.95
14273;BME280;7220;49.450;11.052;2023-02-15T17:36:31;99346.38;;;2.58;96.41
14273;BME280;7220;49.450;11.052;2023-02-15T17:40:34;99342.06;;;2.45;98.16
14273;BME280;7220;49.450;11.052;2023-02-15T17:44:35;99341.19;;;2.40;97.80
14273;BME280;7220;49.450;11.052;2023-02-15T17:48:37;99350.81;;;2.25;98.44
14273;BME280;7220;49.450;11.052;2023-02-15T17:52:39;99349.97;;;2.15;98.99
14273;BME280;7220;49.450;11.052;2023-02-15T17:56:39;99353.47;;;2.10;98.73
14273;BME280;7220;49.450;11.052;2023-02-15T18:00:45;99363.97;;;1.96;99.57
14273;BME280;7220;49.450;11.052;2023-02-15T18:05:14;99368.31;;;1.64;100.00
14273;BME280;7220;49.450;11.052;2023-02-15T18:09:33;99369.16;;;1.49;100.00
14273;BME280;7220;49.450;11.052;2023-02-15T18:13:52;99356.94;;;1.57;100.00
14273;BME280;7220;49.450;11.052;2023-02-15T18:17:53;99346.50;;;1.59;100.00
14273;BME280;7220;49.450;11.052;2023-02-15T18:21:54;99345.56;;;1.38;100.00
14273;BME280;7220;49.450;11.052;2023-02-15T18:25:56;99347.28;;;1.30;100.00
14273;BME280;7220;49.450;11.052;2023-02-15T18:29:56;99346.41;;;1.22;100.00
14273;BME280;7220;49.450;11.052;2023-02-15T18:33:58;99349.03;;;1.22;100.00
14273;BME280;7220;49.450;11.052;2023-02-15T18:38:00;99368.22;;;1.12;100.00
14273;BME280;7220;49.450;11.052;2023-02-15T18:42:02;99352.47;;;1.08;100.00
14273;BME280;7220;49.450;11.052;2023-02-15T18:46:02;99355.97;;;1.06;100.00
14273;BME280;7220;49.450;11.052;2023-02-15T18:50:04;99353.34;;;1.07;100.00
14273;BME280;7220;49.450;11.052;2023-02-15T18:54:07;99355.09;;;1.08;100.00
14273;BME280;7220;49.450;11.052;2023-02-15T18:58:17;99363.75;;;0.89;100.00
14273;BME280;7220;49.450;11.052;2023-02-15T19:02:18;99361.16;;;0.95;100.00
14273;BME280;7220;49.450;11.052;2023-02-15T19:06:21;99358.56;;;0.95;100.00
14273;BME280;7220;49.450;11.052;2023-02-15T19:10:26;99361.16;;;0.98;100.00
14273;BME280;7220;49.450;11.052;2023-02-15T19:14:29;99355.00;;;0.84;100.00
14273;BME280;7220;49.450;11.052;2023-02-15T19:18:30;99355.88;;;0.80;100.00
14273;BME280;7220;49.450;11.052;2023-02-15T19:22:31;99359.34;;;0.82;100.00
14273;BME280;7220;49.450;11.052;2023-02-15T19:26:37;99361.03;;;0.67;100.00
14273;BME280;7220;49.450;11.052;2023-02-15T19:30:40;99354.91;;;0.62;100.00
14273;BME280;7220;49.450;11.052;2023-02-15T19:34:40;99340.06;;;0.61;100.00
14273;BME280;7220;49.450;11.052;2023-02-15T19:38:41;99347.03;;;0.56;100.00
14273;BME280;7220;49.450;11.052;2023-02-15T19:42:41;99340.97;;;0.65;100.00
14273;BME280;7220;49.450;11.052;2023-02-15T19:46:41;99345.34;;;0.70;100.00
14273;BME280;7220;49.450;11.052;2023-02-15T19:50:41;99337.50;;;0.66;100.00
14273;BME280;7220;49.450;11.052;2023-02-15T19:54:44;99339.25;;;0.68;100.00
14273;BME280;7220;49.450;11.052;2023-02-15T19:58:44;99339.31;;;0.84;100.00
14273;BME280;7220;49.450;11.052;2023-02-15T20:02:44;99330.56;;;0.78;100.00
14273;BME280;7220;49.450;11.052;2023-02-15T20:06:46;99345.41;;;0.80;100.00
14273;BME280;7220;49.450;11.052;2023-02-15T20:10:48;99350.63;;;0.80;100.00
14273;BME280;7220;49.450;11.052;2023-02-15T20:14:49;99349.72;;;0.71;100.00
14273;BME280;7220;49.450;11.052;2023-02-15T20:18:49;99355.78;;;0.67;100.00
14273;BME280;7220;49.450;11.052;2023-02-15T20:22:50;99357.50;;;0.59;100.00
14273;BME280;7220;49.450;11.052;2023-02-15T20:26:51;99343.59;;;0.65;100.00
14273;BME280;7220;49.450;11.052;2023-02-15T20:30:52;99341.88;;;0.71;100.00
14273;BME280;7220;49.450;11.052;2023-02-15T20:34:52;99344.53;;;0.82;100.00
14273;BME280;7220;49.450;11.052;2023-02-15T20:38:52;99341.88;;;0.73;100.00
14273;BME280;7220;49.450;11.052;2023-02-15T20:42:53;99334.94;;;0.83;100.00
14273;BME280;7220;49.450;11.052;2023-02-15T20:46:56;99333.19;;;0.85;100.00
14273;BME280;7220;49.450;11.052;2023-02-15T20:50:57;99328.84;;;0.82;100.00
14273;BME280;7220;49.450;11.052;2023-02-15T20:54:57;99330.59;;;0.85;100.00
14273;BME280;7220;49.450;11.052;2023-02-15T20:58:58;99326.19;;;0.81;100.00
14273;BME280;7220;49.450;11.052;2023-02-15T21:02:59;99331.44;;;0.81;100.00
14273;BME280;7220;49.450;11.052;2023-02-15T21:07:01;99309.59;;;0.77;100.00
14273;BME280;7220;49.450;11.052;2023-02-15T21:11:01;99311.34;;;0.78;100.00
14273;BME280;7220;49.450;11.052;2023-02-15T21:15:01;99307.88;;;0.73;100.00
14273;BME280;7220;49.450;11.052;2023-02-15T21:19:14;99306.91;;;0.54;100.00
14273;BME280;7220;49.450;11.052;2023-02-15T21:23:16;99316.44;;;0.41;100.00
14273;BME280;7220;49.450;11.052;2023-02-15T21:27:18;99309.44;;;0.41;100.00
14273;BME280;7220;49.450;11.052;2023-02-15T21:31:22;99312.94;;;0.40;100.00
14273;BME280;7220;49.450;11.052;2023-02-15T21:35:22;99309.44;;;0.35;100.00
14273;BME280;7220;49.450;11.052;2023-02-15T21:39:24;99304.19;;;0.32;100.00
14273;BME280;7220;49.450;11.052;2023-02-15T21:43:26;99303.31;;;0.30;100.00
14273;BME280;7220;49.450;11.052;2023-02-15T21:47:45;99310.28;;;0.33;100.00
14273;BME280;7220;49.450;11.052;2023-02-15T21:51:51;99308.50;;;0.24;100.00
14273;BME280;7220;49.450;11.052;2023-02-15T21:56:16;99309.31;;;0.17;100.00
14273;BME280;7220;49.450;11.052;2023-02-15T22:00:19;99309.38;;;0.26;100.00
14273;BME280;7220;49.450;11.052;2023-02-15T22:04:25;99318.97;;;0.24;100.00
14273;BME280;7220;49.450;11.052;2023-02-15T22:08:26;99316.28;;;0.18;100.00
14273;BME280;7220;49.450;11.052;2023-02-15T22:12:26;99307.63;;;0.25;100.00
14273;BME280;7220;49.450;11.052;2023-02-15T22:16:29;99315.38;;;0.09;100.00
14273;BME280;7220;49.450;11.052;2023-02-15T22:20:29;99318.84;;;0.05;100.00
14273;BME280;7220;49.450;11.052;2023-02-15T22:24:30;99320.56;;;0.03;100.00
14273;BME280;7220;49.450;11.052;2023-02-15T22:28:35;99314.47;;;0.03;100.00
14273;BME280;7220;49.450;11.052;2023-02-15T22:32:36;99317.09;;;0.04;100.00
14273;BME280;7220;49.450;11.052;2023-02-15T22:36:37;99324.00;;;-0.03;100.00
14273;BME280;7220;49.450;11.052;2023-02-15T22:40:39;99317.09;;;0.04;100.00
14273;BME280;7220;49.450;11.052;2023-02-15T22:44:40;99319.69;;;0.04;100.00
14273;BME280;7220;49.450;11.052;2023-02-15T22:48:41;99324.03;;;0.02;100.00
14273;BME280;7220;49.450;11.052;2023-02-15T22:52:42;99339.72;;;-0.01;100.00
14273;BME280;7220;49.450;11.052;2023-02-15T23:00:44;99331.94;;;0.10;100.00
14273;BME280;7220;49.450;11.052;2023-02-15T23:04:44;99338.88;;;0.09;100.00
14273;BME280;7220;49.450;11.052;2023-02-15T23:08:45;99325.00;;;0.17;100.00
14273;BME280;7220;49.450;11.052;2023-02-15T23:12:58;99327.53;;;0.03;100.00
14273;BME280;7220;49.450;11.052;2023-02-15T23:17:19;99323.19;;;0.08;100.00
14273;BME280;7220;49.450;11.052;2023-02-15T23:21:30;99331.84;;;-0.03;100.00
14273;BME280;7220;49.450;11.052;2023-02-15T23:25:31;99315.28;;;-0.03;100.00
14273;BME280;7220;49.450;11.052;2023-02-15T23:29:31;99317.03;;;0.01;100.00
14273;BME280;7220;49.450;11.052;2023-02-15T23:33:33;99315.34;;;0.03;100.00